Time;durP1;ratioP1;P1;durP2;ratioP2;P2;SDS_P1;SDS_P2;PMS_P1;PMS_P2;Temp;Humidity;BMP_temperature;BMP_pressure;BME280_temperature;BME280_humidity;BME280_pressure;Samples;Min_cycle;Max_cycle;Signal;HPM_P1;HPM_P2
2022/11/07 00:02:10;;;;;;;;;;;7.80;99.90;;;;;;4928255;29;19911;-80
2022/11/07 00:04:36;;;;;;;;;;;7.80;99.90;;;;;;4930146;29;19914;-78
2022/11/07 00:07:01;;;;;;;;;;;7.90;99.90;;;;;;4930997;29;19969;-80
2022/11/07 00:09:27;;;;;;;;;;;8.00;99.90;;;;;;4929139;29;20028;-79
2022/11/07 00:11:52;;;;;;;;;;;8.00;99.90;;;;;;4918011;29;19957;-80
2022/11/07 00:14:18;;;;;;;;;;;8.00;99.90;;;;;;4932265;29;20013;-80
2022/11/07 00:16:44;;;;;;;;;;;8.00;99.90;;;;;;4928106;29;19915;-80
2022/11/07 00:19:10;;;;;;;;;;;8.00;99.90;;;;;;4938088;28;19910;-79
2022/11/07 00:21:37;;;;;;;;;;;8.10;99.90;;;;;;4927862;29;19918;-79
2022/11/07 00:24:02;;;;;;;;;;;8.10;99.90;;;;;;4922050;29;19985;-80
2022/11/07 00:26:28;;;;;;;;;;;8.10;99.90;;;;;;4928387;29;20334;-79
2022/11/07 00:28:53;;;;;;;;;;;8.00;99.90;;;;;;4929163;29;19917;-80
2022/11/07 00:31:19;;;;;;;;;;;8.10;99.90;;;;;;4923500;29;19919;-80
2022/11/07 00:33:44;;;;;;;;;;;8.20;99.90;;;;;;4931611;29;20515;-79
2022/11/07 00:36:16;;;;;;;;;;;8.20;99.90;;;;;;4928098;29;20384;-79
2022/11/07 00:38:41;;;;;;;;;;;8.10;99.90;;;;;;4933604;29;19911;-80
2022/11/07 00:41:06;;;;;;;;;;;8.00;99.90;;;;;;4928560;29;19918;-79
2022/11/07 00:43:32;;;;;;;;;;;8.00;99.90;;;;;;4926643;29;19914;-77
2022/11/07 00:45:59;;;;;;;;;;;8.00;99.90;;;;;;4930618;29;19926;-79
2022/11/07 00:48:24;;;;;;;;;;;8.10;99.90;;;;;;4932161;29;19917;-78
2022/11/07 00:50:50;;;;;;;;;;;8.00;99.90;;;;;;4937421;29;19915;-80
2022/11/07 00:53:15;;;;;;;;;;;8.00;99.90;;;;;;4930796;29;19918;-80
2022/11/07 00:55:41;;;;;;;;;;;8.00;99.90;;;;;;4931565;28;19911;-80
2022/11/07 00:58:06;;;;;;;;;;;7.90;99.90;;;;;;4931122;29;19915;-78
2022/11/07 01:00:32;;;;;;;;;;;8.00;99.90;;;;;;4927309;29;19998;-80
2022/11/07 01:05:41;;;;;;;;;;;8.00;99.90;;;;;;4927836;29;19922;-79
2022/11/07 01:08:06;;;;;;;;;;;8.00;99.90;;;;;;4932615;29;20288;-80
2022/11/07 01:10:32;;;;;;;;;;;8.00;99.90;;;;;;4931745;29;19922;-80
2022/11/07 01:12:57;;;;;;;;;;;8.00;99.90;;;;;;4928049;29;20566;-80
2022/11/07 01:15:23;;;;;;;;;;;8.00;99.90;;;;;;4930753;29;20518;-79
2022/11/07 01:17:48;;;;;;;;;;;8.00;99.90;;;;;;4928934;29;20262;-80
2022/11/07 01:20:14;;;;;;;;;;;8.10;99.90;;;;;;4932763;29;19910;-80
2022/11/07 01:22:39;;;;;;;;;;;8.20;99.90;;;;;;4932652;29;19911;-80
2022/11/07 01:25:05;;;;;;;;;;;8.20;99.90;;;;;;4933633;29;19973;-80
2022/11/07 01:27:31;;;;;;;;;;;8.20;99.90;;;;;;4928456;29;20330;-80
2022/11/07 01:29:56;;;;;;;;;;;8.20;99.90;;;;;;4930594;29;19918;-80
2022/11/07 01:32:22;;;;;;;;;;;8.30;99.90;;;;;;4935633;29;19915;-80
2022/11/07 01:34:47;;;;;;;;;;;8.30;99.90;;;;;;4937010;29;19922;-80
2022/11/07 01:37:12;;;;;;;;;;;8.20;99.90;;;;;;4931632;29;19958;-80
2022/11/07 01:39:38;;;;;;;;;;;8.20;99.90;;;;;;4932797;29;20361;-80
2022/11/07 01:42:03;;;;;;;;;;;8.20;99.90;;;;;;4921095;29;19911;-80
2022/11/07 01:44:41;;;;;;;;;;;8.20;99.90;;;;;;4931640;29;20404;-79
2022/11/07 01:47:07;;;;;;;;;;;8.10;99.90;;;;;;4933502;29;19996;-80
2022/11/07 01:49:37;;;;;;;;;;;8.00;99.90;;;;;;4935052;29;19914;-80
2022/11/07 01:52:06;;;;;;;;;;;7.90;99.90;;;;;;4927868;29;20010;-80
2022/11/07 01:54:46;;;;;;;;;;;7.90;99.90;;;;;;4931244;29;19914;-80
2022/11/07 01:57:21;;;;;;;;;;;8.00;99.90;;;;;;4934810;29;19969;-80
2022/11/07 01:59:47;;;;;;;;;;;8.00;99.90;;;;;;4934525;29;19910;-80
2022/11/07 02:02:13;;;;;;;;;;;8.10;99.90;;;;;;4938635;29;20350;-80
2022/11/07 02:04:38;;;;;;;;;;;8.20;99.90;;;;;;4930211;29;19915;-80
2022/11/07 02:07:14;;;;;;;;;;;8.20;99.90;;;;;;4933749;29;19950;-80
2022/11/07 02:09:40;;;;;;;;;;;8.20;99.90;;;;;;4932055;29;19934;-80
2022/11/07 02:12:05;;;;;;;;;;;8.20;99.90;;;;;;4933056;29;19915;-80
2022/11/07 02:14:31;;;;;;;;;;;8.30;99.90;;;;;;4923270;29;19937;-80
2022/11/07 02:16:56;;;;;;;;;;;8.30;99.90;;;;;;4934471;29;19914;-80
2022/11/07 02:19:34;;;;;;;;;;;8.30;99.90;;;;;;4929997;29;19915;-79
2022/11/07 02:22:17;;;;;;;;;;;8.30;99.90;;;;;;4933516;29;19966;-80
2022/11/07 02:24:44;;;;;;;;;;;8.30;99.90;;;;;;4926242;29;19991;-80
2022/11/07 02:27:11;;;;;;;;;;;8.20;99.90;;;;;;4930669;29;19917;-80
2022/11/07 02:29:38;;;;;;;;;;;8.30;99.90;;;;;;4922891;29;20017;-79
2022/11/07 02:32:08;;;;;;;;;;;8.40;99.90;;;;;;4931736;29;19918;-80
2022/11/07 02:34:34;;;;;;;;;;;8.40;99.90;;;;;;4923733;28;20010;-81
2022/11/07 02:37:01;;;;;;;;;;;8.40;99.90;;;;;;4928282;29;20596;-81
2022/11/07 02:39:26;;;;;;;;;;;8.40;99.90;;;;;;4942159;29;20021;-81
2022/11/07 02:41:52;;;;;;;;;;;8.40;99.90;;;;;;4928735;29;20026;-79
2022/11/07 02:44:18;;;;;;;;;;;8.50;99.90;;;;;;4931016;29;19918;-79
2022/11/07 02:46:44;;;;;;;;;;;8.50;99.90;;;;;;4927852;29;19911;-79
2022/11/07 02:49:09;;;;;;;;;;;8.50;99.90;;;;;;4933657;29;20090;-80
2022/11/07 02:51:34;;;;;;;;;;;8.60;99.90;;;;;;4934088;28;19910;-81
2022/11/07 02:54:00;;;;;;;;;;;8.50;99.90;;;;;;4926601;28;20357;-80
2022/11/07 02:56:25;;;;;;;;;;;8.60;99.90;;;;;;4929725;29;19918;-81
2022/11/07 02:58:53;;;;;;;;;;;8.50;99.90;;;;;;4932747;29;19919;-81
2022/11/07 03:01:19;;;;;;;;;;;8.60;99.90;;;;;;4937753;28;19965;-80
2022/11/07 03:03:46;;;;;;;;;;;8.60;99.90;;;;;;4930097;29;19911;-81
2022/11/07 03:06:13;;;;;;;;;;;8.60;99.90;;;;;;4927588;29;19962;-81
2022/11/07 03:08:38;;;;;;;;;;;8.70;99.90;;;;;;4930105;29;19950;-80
2022/11/07 03:11:04;;;;;;;;;;;8.70;99.90;;;;;;4930336;29;19966;-81
2022/11/07 03:13:30;;;;;;;;;;;8.80;99.90;;;;;;4930771;29;19954;-81
2022/11/07 03:15:56;;;;;;;;;;;8.80;99.90;;;;;;4926819;29;19911;-81
2022/11/07 03:18:22;;;;;;;;;;;8.80;99.90;;;;;;4920658;29;19915;-80
2022/11/07 03:20:48;;;;;;;;;;;8.90;99.90;;;;;;4932377;29;19915;-80
2022/11/07 03:23:13;;;;;;;;;;;8.80;99.90;;;;;;4932846;29;19963;-80
2022/11/07 03:25:39;;;;;;;;;;;8.90;99.90;;;;;;4929871;29;20020;-80
2022/11/07 03:28:05;;;;;;;;;;;8.90;99.90;;;;;;4929553;29;19911;-79
2022/11/07 03:30:30;;;;;;;;;;;8.90;99.90;;;;;;4940777;28;19929;-80
2022/11/07 03:32:56;;;;;;;;;;;9.00;99.90;;;;;;4926706;29;20924;-80
2022/11/07 03:35:21;;;;;;;;;;;9.00;99.90;;;;;;4929138;28;19918;-80
2022/11/07 03:37:47;;;;;;;;;;;9.00;99.90;;;;;;4929598;29;19923;-81
2022/11/07 03:40:13;;;;;;;;;;;9.10;99.90;;;;;;4929874;29;19919;-80
2022/11/07 03:42:42;;;;;;;;;;;9.10;99.90;;;;;;4932753;29;20064;-79
2022/11/07 03:45:08;;;;;;;;;;;9.10;99.90;;;;;;4916551;29;19918;-80
2022/11/07 03:47:34;;;;;;;;;;;9.10;99.90;;;;;;4929436;29;19922;-81
2022/11/07 03:49:59;;;;;;;;;;;9.20;99.90;;;;;;4930715;29;19917;-82
2022/11/07 03:52:25;;;;;;;;;;;9.10;99.90;;;;;;4929510;29;20285;-82
2022/11/07 03:54:50;;;;;;;;;;;9.10;99.90;;;;;;4938966;29;19918;-81
2022/11/07 03:57:16;;;;;;;;;;;9.10;99.90;;;;;;4926814;29;19958;-81
2022/11/07 03:59:41;;;;;;;;;;;9.20;99.90;;;;;;4929835;29;19916;-82
2022/11/07 04:02:06;;;;;;;;;;;9.20;99.90;;;;;;4929217;29;20389;-80
2022/11/07 04:04:32;;;;;;;;;;;9.20;99.90;;;;;;4929509;28;20420;-82
2022/11/07 04:06:57;;;;;;;;;;;9.20;99.90;;;;;;4934558;29;19918;-81
2022/11/07 04:09:23;;;;;;;;;;;9.20;99.90;;;;;;4945561;29;19910;-80
2022/11/07 04:17:19;;;;;;;;;;;9.20;99.90;;;;;;4925322;29;19980;-81
2022/11/07 04:19:45;;;;;;;;;;;9.20;99.90;;;;;;4932095;29;19922;-81
2022/11/07 04:22:11;;;;;;;;;;;9.20;99.90;;;;;;4934114;29;20021;-83
2022/11/07 04:24:36;;;;;;;;;;;9.10;99.90;;;;;;4921149;28;20413;-84
2022/11/07 04:29:46;;;;;;;;;;;9.00;99.90;;;;;;4936384;28;20006;-82
2022/11/07 04:32:11;;;;;;;;;;;9.10;99.90;;;;;;4936427;28;20013;-80
2022/11/07 04:34:37;;;;;;;;;;;9.10;99.90;;;;;;4924415;29;19934;-81
2022/11/07 04:37:02;;;;;;;;;;;9.20;99.90;;;;;;4929913;29;19934;-80
2022/11/07 04:39:28;;;;;;;;;;;9.10;99.90;;;;;;4929813;29;19914;-81
2022/11/07 04:41:55;;;;;;;;;;;9.20;99.90;;;;;;4928423;28;19911;-81
2022/11/07 04:44:20;;;;;;;;;;;9.10;99.90;;;;;;4929815;29;19918;-82
2022/11/07 04:46:46;;;;;;;;;;;9.20;99.90;;;;;;4924164;29;19911;-81
2022/11/07 04:49:14;;;;;;;;;;;9.20;99.90;;;;;;4927999;29;19925;-82
2022/11/07 04:51:42;;;;;;;;;;;9.20;99.90;;;;;;4925135;29;19910;-82
2022/11/07 04:54:12;;;;;;;;;;;9.20;99.90;;;;;;4921675;29;20553;-82
2022/11/07 04:56:37;;;;;;;;;;;9.20;99.90;;;;;;4925998;29;19911;-79
2022/11/07 04:59:03;;;;;;;;;;;9.20;99.90;;;;;;4931328;29;20357;-81
2022/11/07 05:01:28;;;;;;;;;;;9.20;99.90;;;;;;4925304;29;19910;-81
2022/11/07 05:03:54;;;;;;;;;;;9.20;99.90;;;;;;4920699;29;19911;-83
2022/11/07 05:06:19;;;;;;;;;;;9.20;99.90;;;;;;4927082;29;19938;-83
2022/11/07 05:08:44;;;;;;;;;;;9.20;99.90;;;;;;4929680;29;20430;-81
2022/11/07 05:11:10;;;;;;;;;;;9.30;99.90;;;;;;4929119;29;20457;-80
2022/11/07 05:13:36;;;;;;;;;;;9.20;99.90;;;;;;4929506;29;19922;-85
2022/11/07 05:16:01;;;;;;;;;;;9.20;99.90;;;;;;4930185;29;20022;-85
2022/11/07 05:18:26;;;;;;;;;;;9.20;99.90;;;;;;4928953;29;19929;-82
2022/11/07 05:20:52;;;;;;;;;;;9.30;99.90;;;;;;4924379;29;19950;-82
2022/11/07 05:23:17;;;;;;;;;;;9.30;99.90;;;;;;4930370;29;19914;-93
2022/11/07 05:25:52;;;;;;;;;;;9.30;99.90;;;;;;4921734;29;19922;-81
2022/11/07 05:28:25;;;;;;;;;;;9.30;99.90;;;;;;4932830;29;19910;-86
2022/11/07 05:30:50;;;;;;;;;;;9.20;99.90;;;;;;4929701;29;19919;-89
2022/11/07 05:33:16;;;;;;;;;;;9.30;99.90;;;;;;4927486;29;19925;-89
2022/11/07 05:35:42;;;;;;;;;;;9.30;99.90;;;;;;4928615;29;19962;-87
2022/11/07 05:38:08;;;;;;;;;;;9.30;99.90;;;;;;4930992;29;19942;-83
2022/11/07 05:40:34;;;;;;;;;;;9.30;99.90;;;;;;4931915;29;20001;-87
2022/11/07 05:43:00;;;;;;;;;;;9.40;99.90;;;;;;4925978;29;20457;-88
2022/11/07 05:45:26;;;;;;;;;;;9.40;99.90;;;;;;4924757;29;19915;-82
2022/11/07 05:47:58;;;;;;;;;;;9.40;99.90;;;;;;4930666;29;19978;-81
2022/11/07 05:50:24;;;;;;;;;;;9.40;99.90;;;;;;4931135;29;19911;-81
2022/11/07 05:52:49;;;;;;;;;;;9.40;99.90;;;;;;4931869;29;19911;-78
2022/11/07 05:55:15;;;;;;;;;;;9.40;99.90;;;;;;4931124;29;19994;-79
2022/11/07 05:57:40;;;;;;;;;;;9.40;99.90;;;;;;4933077;29;20286;-80
2022/11/07 06:00:06;;;;;;;;;;;9.40;99.90;;;;;;4930824;29;19918;-79
2022/11/07 06:02:31;;;;;;;;;;;9.40;99.90;;;;;;4928175;29;19906;-80
2022/11/07 06:04:57;;;;;;;;;;;9.40;99.90;;;;;;4931212;29;19915;-79
2022/11/07 06:07:22;;;;;;;;;;;9.50;99.90;;;;;;4930856;29;19923;-79
2022/11/07 06:09:47;;;;;;;;;;;9.40;99.90;;;;;;4929106;29;19919;-85
2022/11/07 06:12:13;;;;;;;;;;;9.40;99.90;;;;;;4923972;29;19908;-82
2022/11/07 06:14:38;;;;;;;;;;;9.50;99.90;;;;;;4921800;29;19960;-83
2022/11/07 06:17:04;;;;;;;;;;;9.40;99.90;;;;;;4921457;29;19934;-83
2022/11/07 06:19:29;;;;;;;;;;;9.40;99.90;;;;;;4919188;29;20049;-84
2022/11/07 06:21:54;;;;;;;;;;;9.50;99.90;;;;;;4924051;29;20037;-83
2022/11/07 06:24:20;;;;;;;;;;;9.40;99.90;;;;;;4913308;29;19970;-84
2022/11/07 06:26:45;;;;;;;;;;;9.40;99.90;;;;;;4925540;29;19919;-82
2022/11/07 06:29:11;;;;;;;;;;;9.40;99.90;;;;;;4921462;29;19919;-82
2022/11/07 06:31:36;;;;;;;;;;;9.50;99.90;;;;;;4921130;29;19933;-83
2022/11/07 06:34:02;;;;;;;;;;;9.50;99.90;;;;;;4921875;29;20274;-82
2022/11/07 06:36:27;;;;;;;;;;;9.60;99.90;;;;;;4922831;29;19915;-84
2022/11/07 06:38:53;;;;;;;;;;;9.50;99.90;;;;;;4921093;29;19919;-84
2022/11/07 06:41:18;;;;;;;;;;;9.60;99.90;;;;;;4922759;29;19965;-84
2022/11/07 06:43:44;;;;;;;;;;;9.50;99.90;;;;;;4922459;29;19918;-83
2022/11/07 06:46:11;;;;;;;;;;;9.50;99.90;;;;;;4921787;29;19911;-86
2022/11/07 06:48:36;;;;;;;;;;;9.50;99.90;;;;;;4922196;29;19946;-84
2022/11/07 06:51:02;;;;;;;;;;;9.60;99.90;;;;;;4921443;29;19949;-84
2022/11/07 06:53:28;;;;;;;;;;;9.70;99.90;;;;;;4921560;29;19997;-84
2022/11/07 06:55:54;;;;;;;;;;;9.70;99.90;;;;;;4921762;29;20618;-84
2022/11/07 06:58:19;;;;;;;;;;;9.70;99.90;;;;;;4922971;29;19926;-84
2022/11/07 07:00:45;;;;;;;;;;;9.70;99.90;;;;;;4920096;29;20204;-84
2022/11/07 07:03:10;;;;;;;;;;;9.80;99.90;;;;;;4923152;28;20851;-84
2022/11/07 07:05:36;;;;;;;;;;;9.80;99.90;;;;;;4923711;29;20005;-85
2022/11/07 07:08:02;;;;;;;;;;;9.80;99.90;;;;;;4921803;29;20315;-85
2022/11/07 07:10:28;;;;;;;;;;;9.80;99.90;;;;;;4920988;29;20294;-84
2022/11/07 07:12:53;;;;;;;;;;;9.80;99.90;;;;;;4922809;29;19917;-85
2022/11/07 07:15:19;;;;;;;;;;;9.90;99.90;;;;;;4922326;29;19919;-86
2022/11/07 07:17:44;;;;;;;;;;;9.90;99.90;;;;;;4921711;29;19926;-83
2022/11/07 07:20:10;;;;;;;;;;;9.90;99.90;;;;;;4922001;29;19961;-83
2022/11/07 07:22:35;;;;;;;;;;;9.90;99.90;;;;;;4921734;29;19922;-85
2022/11/07 07:25:00;;;;;;;;;;;10.00;99.90;;;;;;4920404;29;20330;-84
2022/11/07 07:27:26;;;;;;;;;;;10.10;99.90;;;;;;4921707;29;20332;-81
2022/11/07 07:29:52;;;;;;;;;;;10.20;99.90;;;;;;4921534;29;20351;-85
2022/11/07 07:32:18;;;;;;;;;;;10.20;99.90;;;;;;4920698;29;19914;-84
2022/11/07 07:34:43;;;;;;;;;;;10.20;99.90;;;;;;4921698;29;19915;-80
2022/11/07 07:37:09;;;;;;;;;;;10.30;99.90;;;;;;4921314;29;20101;-84
2022/11/07 07:39:34;;;;;;;;;;;10.40;99.90;;;;;;4920674;29;19910;-83
2022/11/07 07:42:00;;;;;;;;;;;10.40;99.90;;;;;;4920812;29;19911;-83
2022/11/07 07:44:25;;;;;;;;;;;10.40;99.90;;;;;;4921233;29;19926;-85
2022/11/07 07:46:50;;;;;;;;;;;10.40;99.90;;;;;;4921362;29;19915;-81
2022/11/07 07:49:16;;;;;;;;;;;10.30;99.90;;;;;;4920272;29;20359;-74
2022/11/07 07:51:41;;;;;;;;;;;10.40;99.90;;;;;;4922649;29;19957;-74
2022/11/07 07:54:07;;;;;;;;;;;10.50;99.90;;;;;;4920125;29;19917;-74
2022/11/07 07:56:32;;;;;;;;;;;10.50;99.90;;;;;;4920357;29;19918;-73
2022/11/07 07:58:57;;;;;;;;;;;10.30;99.90;;;;;;4922249;29;19966;-74
2022/11/07 08:01:23;;;;;;;;;;;10.00;99.90;;;;;;4919378;29;20001;-75
2022/11/07 08:03:48;;;;;;;;;;;9.90;99.90;;;;;;4920545;29;19910;-71
2022/11/07 08:06:14;;;;;;;;;;;9.90;99.90;;;;;;4914761;29;19922;-73
2022/11/07 08:08:39;;;;;;;;;;;9.90;99.90;;;;;;4912007;29;19910;-73
2022/11/07 08:11:06;;;;;;;;;;;9.90;99.90;;;;;;4913236;29;19923;-75
2022/11/07 08:13:31;;;;;;;;;;;10.00;99.90;;;;;;4914054;28;20272;-76
2022/11/07 08:15:57;;;;;;;;;;;10.20;99.90;;;;;;4918229;29;21661;-74
2022/11/07 08:18:22;;;;;;;;;;;10.40;99.90;;;;;;4916600;29;19969;-75
2022/11/07 08:20:48;;;;;;;;;;;10.50;99.90;;;;;;4914286;29;19911;-75
2022/11/07 08:23:14;;;;;;;;;;;10.70;99.90;;;;;;4910030;29;19973;-77
2022/11/07 08:25:39;;;;;;;;;;;10.80;99.90;;;;;;4925871;29;20252;-74
2022/11/07 08:28:06;;;;;;;;;;;10.70;99.90;;;;;;4916654;29;19918;-75
2022/11/07 08:30:31;;;;;;;;;;;10.60;99.90;;;;;;4916562;29;20051;-73
2022/11/07 08:33:00;;;;;;;;;;;10.60;99.90;;;;;;4913184;29;20694;-72
2022/11/07 08:35:26;;;;;;;;;;;10.60;99.90;;;;;;4908204;29;19922;-74
2022/11/07 08:37:52;;;;;;;;;;;10.60;99.90;;;;;;4923208;29;19925;-75
2022/11/07 08:40:18;;;;;;;;;;;10.70;99.90;;;;;;4914229;29;19915;-74
2022/11/07 08:42:43;;;;;;;;;;;10.90;99.90;;;;;;4913828;29;19918;-74
2022/11/07 08:45:09;;;;;;;;;;;11.40;99.90;;;;;;4919835;29;20014;-74
2022/11/07 08:47:34;;;;;;;;;;;11.90;99.90;;;;;;4914554;29;19962;-75
2022/11/07 08:50:00;;;;;;;;;;;12.00;99.90;;;;;;4917049;29;20025;-75
2022/11/07 08:52:25;;;;;;;;;;;11.90;99.90;;;;;;4912487;29;20427;-75
2022/11/07 08:54:51;;;;;;;;;;;11.70;99.90;;;;;;4911486;29;20418;-75
2022/11/07 08:57:17;;;;;;;;;;;11.70;99.90;;;;;;4915743;29;19911;-76
2022/11/07 08:59:42;;;;;;;;;;;11.80;99.90;;;;;;4920168;29;19989;-75
2022/11/07 09:02:11;;;;;;;;;;;11.90;99.90;;;;;;4921178;29;20354;-73
2022/11/07 09:04:36;;;;;;;;;;;11.90;99.90;;;;;;4923605;29;19953;-74
2022/11/07 09:07:02;;;;;;;;;;;11.90;99.90;;;;;;4922140;29;19942;-75
2022/11/07 09:09:27;;;;;;;;;;;12.00;99.90;;;;;;4923174;28;20347;-75
2022/11/07 09:11:53;;;;;;;;;;;12.00;99.90;;;;;;4919910;29;19915;-74
2022/11/07 09:14:18;;;;;;;;;;;12.00;99.90;;;;;;4915944;29;19911;-75
2022/11/07 09:16:44;;;;;;;;;;;12.00;99.90;;;;;;4919759;29;19922;-74
2022/11/07 09:19:09;;;;;;;;;;;12.10;99.90;;;;;;4918760;29;19918;-75
2022/11/07 09:21:34;;;;;;;;;;;12.10;99.90;;;;;;4924448;29;20263;-75
2022/11/07 09:24:00;;;;;;;;;;;12.30;99.90;;;;;;4913093;29;20014;-75
2022/11/07 09:26:25;;;;;;;;;;;12.40;99.90;;;;;;4917457;29;19918;-75
2022/11/07 09:28:51;;;;;;;;;;;12.50;99.90;;;;;;4913161;29;19950;-74
2022/11/07 09:31:16;;;;;;;;;;;12.70;99.90;;;;;;4917661;29;20460;-74
2022/11/07 09:33:42;;;;;;;;;;;12.90;99.90;;;;;;4916749;29;20317;-75
2022/11/07 09:36:07;;;;;;;;;;;12.90;99.90;;;;;;4915021;29;19915;-74
2022/11/07 09:38:33;;;;;;;;;;;12.70;99.90;;;;;;4914197;29;19975;-75
2022/11/07 09:41:04;;;;;;;;;;;12.70;99.90;;;;;;4923201;29;19913;-74
2022/11/07 09:43:55;;;;;;;;;;;12.90;99.90;;;;;;4923532;29;19919;-75
2022/11/07 09:46:35;;;;;;;;;;;12.80;99.90;;;;;;4922736;29;19981;-72
2022/11/07 09:49:07;;;;;;;;;;;12.60;99.90;;;;;;4923388;29;19914;-74
2022/11/07 09:51:34;;;;;;;;;;;12.80;99.90;;;;;;4922997;29;20001;-73
2022/11/07 09:54:02;;;;;;;;;;;13.00;99.90;;;;;;4922383;29;19911;-74
2022/11/07 09:56:29;;;;;;;;;;;13.50;99.90;;;;;;4921634;29;19918;-74
2022/11/07 09:58:57;;;;;;;;;;;13.80;99.90;;;;;;4923602;29;19942;-74
2022/11/07 10:01:24;;;;;;;;;;;14.20;99.90;;;;;;4921711;29;19923;-74
2022/11/07 10:03:50;;;;;;;;;;;14.20;99.90;;;;;;4922787;29;19911;-74
2022/11/07 10:06:23;;;;;;;;;;;13.90;99.90;;;;;;4923713;29;19978;-75
2022/11/07 10:08:51;;;;;;;;;;;13.30;99.90;;;;;;4922802;29;19989;-75
2022/11/07 10:11:25;;;;;;;;;;;13.10;99.90;;;;;;4922019;29;19910;-73
2022/11/07 10:13:51;;;;;;;;;;;13.20;99.90;;;;;;4921781;29;19926;-75
2022/11/07 10:16:28;;;;;;;;;;;13.30;99.90;;;;;;4919650;29;20309;-74
2022/11/07 10:19:00;;;;;;;;;;;13.40;99.90;;;;;;4918143;29;20333;-73
2022/11/07 10:21:43;;;;;;;;;;;13.40;99.90;;;;;;4918820;29;19914;-74
2022/11/07 10:24:34;;;;;;;;;;;13.50;99.90;;;;;;4920441;29;20421;-73
2022/11/07 10:27:00;;;;;;;;;;;13.60;99.90;;;;;;4915884;29;19922;-73
2022/11/07 10:29:28;;;;;;;;;;;13.40;99.90;;;;;;4919492;29;19945;-74
2022/11/07 10:31:56;;;;;;;;;;;13.70;99.90;;;;;;4918666;29;20001;-73
2022/11/07 10:34:21;;;;;;;;;;;13.90;99.90;;;;;;4921445;29;19921;-74
2022/11/07 10:36:47;;;;;;;;;;;13.90;99.90;;;;;;4922041;29;19911;-73
2022/11/07 10:39:16;;;;;;;;;;;14.20;99.90;;;;;;4921775;29;19922;-75
2022/11/07 10:41:45;;;;;;;;;;;14.70;98.90;;;;;;4922533;29;19915;-74
2022/11/07 10:44:12;;;;;;;;;;;15.50;97.20;;;;;;4921235;29;19926;-74
2022/11/07 10:46:45;;;;;;;;;;;15.90;95.60;;;;;;4921074;29;19931;-74
2022/11/07 10:49:16;;;;;;;;;;;15.50;94.70;;;;;;4921458;29;19918;-74
2022/11/07 10:51:41;;;;;;;;;;;15.90;94.20;;;;;;4922082;29;20277;-75
2022/11/07 10:54:17;;;;;;;;;;;17.70;90.40;;;;;;4920777;29;19911;-74
2022/11/07 10:56:53;;;;;;;;;;;19.00;81.90;;;;;;4921753;29;20285;-73
2022/11/07 10:59:25;;;;;;;;;;;17.80;84.70;;;;;;4921060;29;20370;-74
2022/11/07 11:01:52;;;;;;;;;;;19.10;80.00;;;;;;4920814;29;19911;-75
2022/11/07 11:04:24;;;;;;;;;;;19.60;76.60;;;;;;4920486;29;19915;-74
2022/11/07 11:06:56;;;;;;;;;;;20.20;72.70;;;;;;4925493;29;19922;-74
2022/11/07 11:09:26;;;;;;;;;;;19.50;73.90;;;;;;4921879;29;21728;-73
2022/11/07 11:11:52;;;;;;;;;;;19.30;75.70;;;;;;4924372;29;20050;-73
2022/11/07 11:14:18;;;;;;;;;;;19.40;74.40;;;;;;4921359;29;20005;-71
2022/11/07 11:16:45;;;;;;;;;;;19.80;73.40;;;;;;4931825;29;19911;-73
2022/11/07 11:19:29;;;;;;;;;;;20.60;69.70;;;;;;4930248;29;19911;-72
2022/11/07 11:21:56;;;;;;;;;;;21.00;67.40;;;;;;4922441;29;19918;-73
2022/11/07 11:24:22;;;;;;;;;;;20.40;69.20;;;;;;4918475;29;19926;-74
2022/11/07 11:26:49;;;;;;;;;;;20.50;69.80;;;;;;4926688;29;20286;-74
2022/11/07 11:29:25;;;;;;;;;;;21.20;65.30;;;;;;4931088;29;20366;-74
2022/11/07 11:31:51;;;;;;;;;;;22.70;61.90;;;;;;4929005;29;19961;-74
2022/11/07 11:34:25;;;;;;;;;;;21.00;65.60;;;;;;4916959;29;19918;-73
2022/11/07 11:36:56;;;;;;;;;;;19.20;70.50;;;;;;4917370;29;19918;-74
2022/11/07 11:39:27;;;;;;;;;;;20.10;68.80;;;;;;4910680;29;19911;-73
2022/11/07 11:41:54;;;;;;;;;;;20.60;68.70;;;;;;4912747;29;19911;-74
2022/11/07 11:44:23;;;;;;;;;;;19.60;70.20;;;;;;4912234;29;19907;-73
2022/11/07 11:46:54;;;;;;;;;;;18.50;73.90;;;;;;4914994;29;19915;-74
2022/11/07 11:49:30;;;;;;;;;;;19.50;72.40;;;;;;4923340;29;20132;-74
2022/11/07 11:52:06;;;;;;;;;;;21.40;67.30;;;;;;4912283;29;20417;-74
2022/11/07 11:54:32;;;;;;;;;;;20.10;67.30;;;;;;4917922;29;19917;-73
2022/11/07 11:56:59;;;;;;;;;;;19.50;71.10;;;;;;4912306;29;19934;-75
2022/11/07 11:59:32;;;;;;;;;;;20.50;65.90;;;;;;4912214;29;19911;-74
2022/11/07 12:02:28;;;;;;;;;;;21.00;64.90;;;;;;4912547;29;19921;-73
2022/11/07 12:05:00;;;;;;;;;;;19.40;68.90;;;;;;4924525;29;19922;-74
2022/11/07 12:07:49;;;;;;;;;;;20.30;68.30;;;;;;4917613;29;19911;-74
2022/11/07 12:10:32;;;;;;;;;;;21.00;65.40;;;;;;4910532;29;19918;-73
2022/11/07 12:12:57;;;;;;;;;;;22.20;62.60;;;;;;4916812;29;20382;-74
2022/11/07 12:15:27;;;;;;;;;;;21.80;62.40;;;;;;4912597;29;19918;-74
2022/11/07 12:17:57;;;;;;;;;;;21.30;63.60;;;;;;4912491;29;20025;-73
2022/11/07 12:20:25;;;;;;;;;;;21.00;63.20;;;;;;4920839;29;19911;-74
2022/11/07 12:23:09;;;;;;;;;;;21.40;64.10;;;;;;4914933;29;20028;-74
2022/11/07 12:25:35;;;;;;;;;;;19.20;69.00;;;;;;4912395;29;19923;-74
2022/11/07 12:28:09;;;;;;;;;;;18.40;72.10;;;;;;4922636;29;19997;-74
2022/11/07 12:30:52;;;;;;;;;;;18.00;74.20;;;;;;4911714;29;19997;-74
2022/11/07 12:33:18;;;;;;;;;;;18.00;74.20;;;;;;4921749;29;19918;-74
2022/11/07 12:35:47;;;;;;;;;;;18.70;72.20;;;;;;4923781;29;19925;-73
2022/11/07 12:38:13;;;;;;;;;;;19.60;70.00;;;;;;4915959;29;20330;-74
2022/11/07 12:40:44;;;;;;;;;;;19.40;69.50;;;;;;4915945;29;19911;-74
2022/11/07 12:43:26;;;;;;;;;;;19.30;71.90;;;;;;4927012;29;19974;-74
2022/11/07 12:46:00;;;;;;;;;;;20.80;66.00;;;;;;4928666;29;20632;-73
2022/11/07 12:48:36;;;;;;;;;;;19.10;70.50;;;;;;4915858;29;20273;-74
2022/11/07 12:51:08;;;;;;;;;;;18.70;71.80;;;;;;4918468;29;19922;-74
2022/11/07 12:53:43;;;;;;;;;;;20.50;68.50;;;;;;4919132;29;19907;-76
2022/11/07 12:56:18;;;;;;;;;;;21.00;65.00;;;;;;4915661;29;20358;-75
2022/11/07 12:58:45;;;;;;;;;;;18.40;72.30;;;;;;4917721;29;20273;-74
2022/11/07 13:01:12;;;;;;;;;;;17.40;76.60;;;;;;4932528;29;19911;-73
2022/11/07 13:03:56;;;;;;;;;;;16.80;79.90;;;;;;4926773;29;19922;-73
2022/11/07 13:06:44;;;;;;;;;;;16.50;81.50;;;;;;4921483;29;20056;-73
2022/11/07 13:09:10;;;;;;;;;;;16.40;81.80;;;;;;4905407;29;20332;-74
2022/11/07 13:11:55;;;;;;;;;;;15.80;84.80;;;;;;4915306;29;19995;-74
2022/11/07 13:14:30;;;;;;;;;;;15.40;87.20;;;;;;4910951;29;19918;-73
2022/11/07 13:17:02;;;;;;;;;;;15.20;89.20;;;;;;4917157;29;19911;-74
2022/11/07 13:19:31;;;;;;;;;;;15.00;90.20;;;;;;4931191;29;20061;-74
2022/11/07 13:22:17;;;;;;;;;;;15.00;90.80;;;;;;4934218;29;20207;-72
2022/11/07 13:24:53;;;;;;;;;;;15.00;90.90;;;;;;4933915;29;19911;-75
2022/11/07 13:27:20;;;;;;;;;;;14.70;91.20;;;;;;4932766;29;19914;-75
2022/11/07 13:29:46;;;;;;;;;;;14.60;91.60;;;;;;4914977;29;19926;-73
2022/11/07 13:32:15;;;;;;;;;;;14.50;92.20;;;;;;4914917;29;20534;-74
2022/11/07 13:34:46;;;;;;;;;;;14.50;92.70;;;;;;4914638;29;20362;-73
2022/11/07 13:37:17;;;;;;;;;;;14.50;92.90;;;;;;4920279;29;19918;-74
2022/11/07 13:39:44;;;;;;;;;;;14.40;93.20;;;;;;4915114;29;19925;-75
2022/11/07 13:42:16;;;;;;;;;;;14.30;93.80;;;;;;4914476;29;20353;-74
2022/11/07 13:44:48;;;;;;;;;;;14.30;94.00;;;;;;4914738;29;19915;-75
2022/11/07 13:47:15;;;;;;;;;;;14.30;94.40;;;;;;4916875;29;19911;-75
2022/11/07 13:49:42;;;;;;;;;;;14.30;94.50;;;;;;4923260;29;19947;-74
2022/11/07 13:52:18;;;;;;;;;;;14.40;94.60;;;;;;4914656;29;19907;-74
2022/11/07 13:54:55;;;;;;;;;;;14.40;94.90;;;;;;4914424;29;19907;-73
2022/11/07 13:57:23;;;;;;;;;;;14.40;94.70;;;;;;4915952;29;20285;-74
2022/11/07 14:00:00;;;;;;;;;;;14.30;95.10;;;;;;4920118;29;19915;-74
2022/11/07 14:02:27;;;;;;;;;;;14.30;95.50;;;;;;4914558;29;19907;-74
2022/11/07 14:05:00;;;;;;;;;;;14.30;95.70;;;;;;4914529;29;19949;-74
2022/11/07 14:07:31;;;;;;;;;;;14.20;95.90;;;;;;4914174;29;19914;-73
2022/11/07 14:09:57;;;;;;;;;;;14.20;96.40;;;;;;4929867;29;19970;-74
2022/11/07 14:12:23;;;;;;;;;;;14.20;96.50;;;;;;4923465;29;20408;-75
2022/11/07 14:14:53;;;;;;;;;;;14.20;96.70;;;;;;4914259;29;19938;-73
2022/11/07 14:17:19;;;;;;;;;;;14.10;97.10;;;;;;4914081;29;20109;-74
2022/11/07 14:19:44;;;;;;;;;;;14.20;97.30;;;;;;4924925;29;20119;-74
2022/11/07 14:22:22;;;;;;;;;;;14.20;97.50;;;;;;4933005;29;19910;-73
2022/11/07 14:24:52;;;;;;;;;;;14.10;97.60;;;;;;4932860;29;20349;-74
2022/11/07 14:27:18;;;;;;;;;;;14.10;97.90;;;;;;4932895;29;19915;-74
2022/11/07 14:29:51;;;;;;;;;;;14.10;98.20;;;;;;4920294;29;20001;-73
2022/11/07 14:32:16;;;;;;;;;;;14.10;98.40;;;;;;4926643;29;19910;-75
2022/11/07 14:34:43;;;;;;;;;;;14.10;98.70;;;;;;4935702;29;19982;-74
2022/11/07 14:37:12;;;;;;;;;;;14.00;98.90;;;;;;4932006;29;19942;-74
2022/11/07 14:39:37;;;;;;;;;;;14.00;99.50;;;;;;4940622;29;19954;-74